Time;durP1;ratioP1;P1;durP2;ratioP2;P2;SDS_P1;SDS_P2;PMS_P1;PMS_P2;Temp;Humidity;BMP_temperature;BMP_pressure;BME280_temperature;BME280_humidity;BME280_pressure;Samples;Min_cycle;Max_cycle;Signal;HPM_P1;HPM_P2
2022/01/19 00:01:30;;;;;;;11.80;6.32;;;;;;;;;;10447460;28;20218;-64
2022/01/19 00:06:31;;;;;;;10.15;5.45;;;;;;;;;;10448490;28;20942;-64
2022/01/19 00:11:32;;;;;;;7.40;5.32;;;;;;;;;;10432788;28;20222;-64
2022/01/19 00:16:33;;;;;;;10.10;5.53;;;;;;;;;;10447409;28;20198;-65
2022/01/19 00:21:34;;;;;;;11.07;6.05;;;;;;;;;;10444109;28;20215;-65
2022/01/19 00:26:35;;;;;;;9.32;5.68;;;;;;;;;;10450344;28;20191;-65
2022/01/19 00:31:36;;;;;;;8.70;5.70;;;;;;;;;;10444566;28;20280;-65
2022/01/19 00:36:37;;;;;;;13.57;6.47;;;;;;;;;;10452756;28;20191;-64
2022/01/19 00:41:38;;;;;;;9.05;5.53;;;;;;;;;;10455017;28;20259;-64
2022/01/19 00:46:40;;;;;;;8.15;4.75;;;;;;;;;;10447334;28;20201;-64
2022/01/19 00:51:41;;;;;;;8.90;4.80;;;;;;;;;;10434064;28;20218;-64
2022/01/19 00:56:42;;;;;;;6.32;4.40;;;;;;;;;;10418081;28;20198;-65
2022/01/19 01:01:43;;;;;;;10.18;4.38;;;;;;;;;;10419964;28;20257;-65
2022/01/19 01:06:44;;;;;;;9.73;4.88;;;;;;;;;;10418828;28;20211;-65
2022/01/19 01:11:56;;;;;;;6.10;4.30;;;;;;;;;;10431179;28;20214;-64
2022/01/19 01:17:10;;;;;;;6.28;4.47;;;;;;;;;;10417070;28;20214;-64
2022/01/19 01:22:11;;;;;;;6.47;4.47;;;;;;;;;;10416364;28;20253;-64
2022/01/19 01:27:12;;;;;;;5.70;4.25;;;;;;;;;;10416428;28;20242;-64
2022/01/19 01:32:13;;;;;;;7.22;4.22;;;;;;;;;;10414255;28;20215;-64
2022/01/19 01:37:14;;;;;;;5.88;4.55;;;;;;;;;;10422176;28;20677;-65
2022/01/19 01:42:18;;;;;;;6.82;3.70;;;;;;;;;;10431367;28;21123;-64
2022/01/19 01:47:21;;;;;;;9.88;4.43;;;;;;;;;;10431600;28;20186;-64
2022/01/19 01:57:48;;;;;;;6.10;3.65;;;;;;;;;;10445854;28;20194;-64
2022/01/19 02:02:50;;;;;;;5.57;3.95;;;;;;;;;;10457546;28;20226;-64
2022/01/19 02:08:04;;;;;;;5.57;3.95;;;;;;;;;;10446861;28;20725;-64
2022/01/19 02:23:50;;;;;;;4.78;4.15;;;;;;;;;;10454124;28;20210;-64
2022/01/19 02:29:23;;;;;;;6.85;3.95;;;;;;;;;;10453591;28;20195;-64
2022/01/19 02:49:56;;;;;;;6.55;3.92;;;;;;;;;;10454658;28;20216;-64
2022/01/19 02:54:57;;;;;;;12.15;4.82;;;;;;;;;;10453167;28;20187;-63
2022/01/19 03:10:19;;;;;;;5.00;4.10;;;;;;;;;;10450672;28;20601;-64
2022/01/19 03:15:20;;;;;;;8.00;4.60;;;;;;;;;;10438867;28;20187;-64
2022/01/19 03:20:22;;;;;;;6.10;4.57;;;;;;;;;;10453633;28;20206;-63
2022/01/19 03:25:23;;;;;;;7.28;4.75;;;;;;;;;;10450759;28;20182;-63
2022/01/19 03:30:24;;;;;;;8.90;3.80;;;;;;;;;;10449986;28;20291;-63
2022/01/19 03:35:26;;;;;;;6.03;3.72;;;;;;;;;;10450934;28;20221;-63
2022/01/19 03:40:27;;;;;;;6.63;4.05;;;;;;;;;;10439824;28;20210;-63
2022/01/19 03:45:28;;;;;;;5.45;4.63;;;;;;;;;;10447056;28;20221;-63
2022/01/19 03:50:29;;;;;;;5.00;4.15;;;;;;;;;;10448355;28;20213;-63
2022/01/19 03:55:30;;;;;;;9.95;4.45;;;;;;;;;;10447853;28;20198;-62
2022/01/19 04:00:35;;;;;;;13.73;5.72;;;;;;;;;;10448903;28;20230;-63
2022/01/19 04:10:52;;;;;;;7.45;4.90;;;;;;;;;;10446049;28;20186;-63
2022/01/19 04:15:54;;;;;;;8.25;4.25;;;;;;;;;;10446694;28;20197;-62
2022/01/19 04:20:56;;;;;;;8.40;4.35;;;;;;;;;;10444958;28;20206;-63
2022/01/19 04:26:03;;;;;;;7.03;4.57;;;;;;;;;;10449263;28;20182;-62
2022/01/19 04:31:04;;;;;;;8.23;4.20;;;;;;;;;;10435990;28;20241;-62
2022/01/19 04:36:21;;;;;;;9.68;4.57;;;;;;;;;;10451757;28;20175;-62
2022/01/19 05:03:04;;;;;;;7.75;4.95;;;;;;;;;;10444665;28;20701;-62
2022/01/19 05:08:51;;;;;;;7.75;4.72;;;;;;;;;;10430148;28;20189;-62
2022/01/19 05:13:53;;;;;;;10.03;4.90;;;;;;;;;;10445694;28;20209;-62
2022/01/19 05:18:59;;;;;;;8.30;5.03;;;;;;;;;;10443394;28;20182;-62
2022/01/19 05:24:04;;;;;;;8.32;4.45;;;;;;;;;;10451057;28;20613;-61
2022/01/19 05:29:06;;;;;;;7.57;4.30;;;;;;;;;;10442660;28;20187;-61
2022/01/19 05:34:07;;;;;;;8.63;4.93;;;;;;;;;;10444582;28;20232;-62
2022/01/19 05:39:25;;;;;;;8.95;4.93;;;;;;;;;;10452999;28;20662;-62
2022/01/19 05:44:52;;;;;;;5.90;4.20;;;;;;;;;;10456167;28;20218;-62
2022/01/19 05:49:55;;;;;;;8.20;4.68;;;;;;;;;;10451385;28;20222;-62
2022/01/19 05:54:58;;;;;;;10.23;5.63;;;;;;;;;;10451473;28;20183;-61
2022/01/19 05:59:59;;;;;;;8.68;4.63;;;;;;;;;;10455230;28;20316;-61
2022/01/19 06:05:03;;;;;;;11.27;5.72;;;;;;;;;;10435134;28;20240;-61
2022/01/19 06:15:39;;;;;;;10.17;5.57;;;;;;;;;;10450119;28;20205;-61
2022/01/19 06:20:40;;;;;;;11.63;6.03;;;;;;;;;;10452507;28;20208;-61
2022/01/19 06:25:42;;;;;;;8.88;6.05;;;;;;;;;;10453854;28;20558;-61
2022/01/19 06:30:43;;;;;;;9.52;5.47;;;;;;;;;;10455429;28;20348;-61
2022/01/19 06:35:44;;;;;;;8.80;5.88;;;;;;;;;;10455167;28;20190;-60
2022/01/19 06:41:08;;;;;;;16.27;7.05;;;;;;;;;;10423890;28;20206;-61
2022/01/19 06:46:12;;;;;;;14.37;6.33;;;;;;;;;;10442051;28;20281;-61
2022/01/19 06:51:13;;;;;;;11.67;5.50;;;;;;;;;;10444797;28;20214;-61
2022/01/19 06:56:22;;;;;;;11.77;6.30;;;;;;;;;;10447339;28;20213;-61
2022/01/19 07:01:32;;;;;;;14.43;6.37;;;;;;;;;;10454737;28;20210;-61
2022/01/19 07:06:41;;;;;;;18.07;8.27;;;;;;;;;;10451605;28;20567;-61
2022/01/19 07:11:49;;;;;;;16.50;9.33;;;;;;;;;;10454380;28;20280;-60
2022/01/19 07:16:50;;;;;;;21.60;9.30;;;;;;;;;;10434027;28;20190;-61
2022/01/19 07:21:51;;;;;;;16.20;8.10;;;;;;;;;;10448488;28;20228;-61
2022/01/19 07:26:52;;;;;;;15.23;8.67;;;;;;;;;;10450814;28;21477;-61
2022/01/19 07:31:58;;;;;;;20.53;9.23;;;;;;;;;;10451230;28;20210;-61
2022/01/19 07:37:00;;;;;;;16.60;8.20;;;;;;;;;;10448671;28;20203;-60
2022/01/19 07:42:02;;;;;;;16.23;8.00;;;;;;;;;;10453469;28;20217;-61
2022/01/19 07:47:41;;;;;;;13.00;7.57;;;;;;;;;;10341987;28;20216;-61
2022/01/19 07:53:01;;;;;;;21.23;9.30;;;;;;;;;;10433843;28;20203;-61
2022/01/19 07:58:15;;;;;;;23.08;9.50;;;;;;;;;;10447738;28;20228;-61
2022/01/19 08:03:30;;;;;;;27.73;10.07;;;;;;;;;;10449082;28;20223;-61
2022/01/19 08:08:43;;;;;;;28.88;11.88;;;;;;;;;;10433532;28;20337;-61
2022/01/19 08:13:44;;;;;;;22.20;11.80;;;;;;;;;;10435087;28;20290;-61
2022/01/19 08:18:46;;;;;;;24.05;11.55;;;;;;;;;;10438757;28;20728;-61
2022/01/19 08:23:47;;;;;;;28.23;11.98;;;;;;;;;;10433566;28;20202;-61
2022/01/19 08:28:48;;;;;;;26.20;12.13;;;;;;;;;;10446471;28;20784;-61
2022/01/19 08:33:49;;;;;;;27.23;12.37;;;;;;;;;;10449866;28;20695;-61
2022/01/19 08:38:56;;;;;;;29.65;13.20;;;;;;;;;;10431799;28;20194;-62
2022/01/19 08:44:06;;;;;;;28.05;13.50;;;;;;;;;;10435151;28;20571;-61
2022/01/19 08:49:08;;;;;;;23.75;12.98;;;;;;;;;;10449446;28;20259;-61
2022/01/19 08:54:32;;;;;;;24.95;13.05;;;;;;;;;;10437150;28;20925;-62
2022/01/19 08:59:42;;;;;;;23.58;12.90;;;;;;;;;;10437927;28;20203;-62
2022/01/19 09:04:44;;;;;;;23.27;12.85;;;;;;;;;;10448006;28;20317;-62
2022/01/19 09:09:45;;;;;;;21.23;12.63;;;;;;;;;;10436497;28;20294;-62
2022/01/19 09:14:46;;;;;;;22.48;13.02;;;;;;;;;;10460328;28;20190;-63
2022/01/19 09:19:47;;;;;;;24.83;12.77;;;;;;;;;;10462425;28;20202;-63
2022/01/19 09:24:48;;;;;;;22.15;11.77;;;;;;;;;;10453466;28;20214;-63
2022/01/19 09:29:49;;;;;;;23.80;10.90;;;;;;;;;;10457957;28;20706;-63
2022/01/19 09:34:55;;;;;;;19.80;10.98;;;;;;;;;;10456540;28;20268;-62
2022/01/19 09:39:57;;;;;;;16.88;10.68;;;;;;;;;;10458303;28;20194;-63
2022/01/19 09:44:58;;;;;;;18.02;12.20;;;;;;;;;;10437395;28;20211;-63
2022/01/19 09:49:59;;;;;;;16.15;11.05;;;;;;;;;;10458939;28;20222;-63
2022/01/19 09:55:00;;;;;;;17.75;11.57;;;;;;;;;;10460194;28;20682;-63
2022/01/19 10:00:01;;;;;;;16.60;10.02;;;;;;;;;;10445192;28;20209;-63
2022/01/19 10:05:07;;;;;;;14.15;10.15;;;;;;;;;;10454258;28;20225;-63
2022/01/19 10:10:09;;;;;;;18.55;10.55;;;;;;;;;;10453887;28;20191;-64
2022/01/19 10:20:30;;;;;;;12.93;9.68;;;;;;;;;;10454160;28;21578;-64
2022/01/19 10:25:46;;;;;;;14.95;11.30;;;;;;;;;;10454224;28;20280;-65
2022/01/19 10:30:47;;;;;;;11.07;9.30;;;;;;;;;;10458176;28;20317;-64
2022/01/19 10:35:49;;;;;;;11.02;8.32;;;;;;;;;;10455643;28;20194;-64
2022/01/19 10:41:02;;;;;;;11.00;7.85;;;;;;;;;;10452582;28;20224;-64
2022/01/19 10:46:23;;;;;;;15.95;8.68;;;;;;;;;;10452838;28;20269;-64
2022/01/19 10:51:24;;;;;;;11.43;7.43;;;;;;;;;;10450712;28;20223;-64
2022/01/19 10:56:25;;;;;;;12.35;7.65;;;;;;;;;;10447428;28;20254;-64
2022/01/19 11:01:59;;;;;;;9.75;8.23;;;;;;;;;;10447982;28;20640;-64
2022/01/19 11:07:04;;;;;;;12.25;8.50;;;;;;;;;;10426376;28;20191;-63
2022/01/19 11:12:10;;;;;;;10.45;7.68;;;;;;;;;;10451797;28;20198;-64
2022/01/19 11:17:12;;;;;;;13.18;7.60;;;;;;;;;;10453093;28;20198;-64
2022/01/19 11:22:19;;;;;;;15.27;8.88;;;;;;;;;;10453549;28;20301;-64
2022/01/19 11:27:20;;;;;;;13.13;10.10;;;;;;;;;;10453569;28;20260;-64
2022/01/19 11:32:21;;;;;;;15.45;10.85;;;;;;;;;;10435531;28;20245;-64
2022/01/19 11:37:39;;;;;;;17.13;10.63;;;;;;;;;;10452631;28;20369;-64
2022/01/19 11:42:41;;;;;;;13.02;9.98;;;;;;;;;;10449450;28;20691;-64
2022/01/19 11:47:43;;;;;;;11.60;9.93;;;;;;;;;;10449608;28;20195;-64
2022/01/19 11:52:44;;;;;;;11.45;9.15;;;;;;;;;;10452069;28;20219;-64
2022/01/19 11:57:47;;;;;;;11.02;9.48;;;;;;;;;;10452519;28;20214;-65
2022/01/19 12:02:52;;;;;;;13.27;10.10;;;;;;;;;;10438692;28;20226;-64
2022/01/19 12:07:58;;;;;;;11.43;9.50;;;;;;;;;;10452036;28;20240;-66
2022/01/19 12:13:25;;;;;;;12.32;10.60;;;;;;;;;;10451684;28;20969;-64
2022/01/19 12:18:45;;;;;;;11.07;9.50;;;;;;;;;;10453343;28;20618;-64
2022/01/19 12:23:47;;;;;;;10.13;9.05;;;;;;;;;;10451711;28;20233;-64
2022/01/19 12:28:53;;;;;;;10.80;9.80;;;;;;;;;;10451190;28;20195;-64
2022/01/19 12:34:13;;;;;;;10.98;8.82;;;;;;;;;;10452045;28;20214;-64
2022/01/19 12:39:26;;;;;;;15.10;9.63;;;;;;;;;;10447125;28;20572;-65
2022/01/19 12:44:43;;;;;;;9.45;8.30;;;;;;;;;;10456945;28;20240;-66
2022/01/19 12:49:46;;;;;;;9.95;8.27;;;;;;;;;;10464085;28;20305;-65
2022/01/19 12:54:47;;;;;;;9.75;8.85;;;;;;;;;;10461714;28;20198;-64
2022/01/19 12:59:50;;;;;;;9.18;8.25;;;;;;;;;;10459647;28;20239;-65
2022/01/19 13:04:53;;;;;;;7.88;6.95;;;;;;;;;;10462217;28;20222;-63
2022/01/19 13:10:22;;;;;;;7.65;7.03;;;;;;;;;;10448994;28;20678;-62
2022/01/19 13:15:42;;;;;;;6.68;6.10;;;;;;;;;;10460565;28;20198;-63
2022/01/19 13:20:50;;;;;;;6.45;5.88;;;;;;;;;;10459374;28;20818;-63
2022/01/19 13:26:05;;;;;;;5.40;5.00;;;;;;;;;;10435099;28;20186;-63
2022/01/19 13:31:09;;;;;;;4.85;4.55;;;;;;;;;;10456053;28;20213;-64
2022/01/19 13:36:10;;;;;;;4.25;4.03;;;;;;;;;;10456161;28;20202;-66
2022/01/19 13:41:11;;;;;;;4.20;3.90;;;;;;;;;;10454332;28;20222;-64
2022/01/19 13:46:14;;;;;;;3.58;3.38;;;;;;;;;;10455378;28;20365;-64
2022/01/19 13:51:15;;;;;;;3.22;3.13;;;;;;;;;;10452883;28;20222;-64
2022/01/19 13:56:30;;;;;;;4.00;3.90;;;;;;;;;;10446953;28;20195;-64
2022/01/19 14:01:35;;;;;;;3.88;3.65;;;;;;;;;;10449332;28;20222;-64
2022/01/19 14:06:44;;;;;;;4.45;4.25;;;;;;;;;;10452445;28;20345;-64
2022/01/19 14:11:47;;;;;;;5.40;5.18;;;;;;;;;;10449637;28;20716;-64
2022/01/19 14:16:49;;;;;;;5.43;5.22;;;;;;;;;;10446024;28;20245;-64
2022/01/19 14:21:52;;;;;;;6.25;5.90;;;;;;;;;;10449711;28;20964;-64
2022/01/19 14:26:56;;;;;;;6.05;5.65;;;;;;;;;;10453577;28;20190;-65
2022/01/19 14:31:59;;;;;;;7.00;6.60;;;;;;;;;;10447958;28;20210;-65
2022/01/19 14:37:27;;;;;;;7.28;6.78;;;;;;;;;;10451709;28;20219;-64
2022/01/19 14:42:34;;;;;;;7.80;7.07;;;;;;;;;;10437533;28;20223;-64
2022/01/19 14:47:38;;;;;;;7.93;7.30;;;;;;;;;;10456812;28;20703;-65
2022/01/19 14:52:39;;;;;;;8.40;7.72;;;;;;;;;;10453294;28;20199;-64
2022/01/19 14:57:41;;;;;;;7.70;7.20;;;;;;;;;;10453742;28;20684;-63
2022/01/19 15:02:42;;;;;;;7.63;6.78;;;;;;;;;;10454032;28;20350;-66
2022/01/19 15:07:43;;;;;;;8.93;7.95;;;;;;;;;;10452614;28;20667;-65
2022/01/19 15:12:45;;;;;;;8.30;7.50;;;;;;;;;;10453766;28;20201;-65
2022/01/19 15:17:46;;;;;;;8.90;8.10;;;;;;;;;;10441455;28;20310;-63
2022/01/19 15:22:48;;;;;;;9.27;8.57;;;;;;;;;;10449650;28;20933;-65
2022/01/19 15:27:49;;;;;;;8.52;7.88;;;;;;;;;;10448192;28;20186;-64
2022/01/19 15:32:50;;;;;;;9.07;8.10;;;;;;;;;;10449898;28;20302;-64
2022/01/19 15:37:53;;;;;;;9.50;8.60;;;;;;;;;;10445984;28;20213;-64
2022/01/19 15:42:55;;;;;;;8.95;8.02;;;;;;;;;;10439431;28;20233;-64
2022/01/19 15:47:57;;;;;;;9.10;8.30;;;;;;;;;;10445096;28;20684;-65
2022/01/19 15:52:59;;;;;;;7.47;6.85;;;;;;;;;;10448081;28;20198;-65
2022/01/19 15:58:00;;;;;;;7.75;7.10;;;;;;;;;;10448274;28;20256;-65
2022/01/19 16:03:04;;;;;;;8.07;7.32;;;;;;;;;;10448029;28;20385;-65
2022/01/19 16:08:06;;;;;;;7.63;6.93;;;;;;;;;;10447119;28;20202;-65
2022/01/19 16:13:07;;;;;;;6.93;6.53;;;;;;;;;;10444363;28;20190;-64
2022/01/19 16:18:08;;;;;;;7.85;7.25;;;;;;;;;;10445498;28;20210;-65
2022/01/19 16:28:29;;;;;;;13.80;6.95;;;;;;;;;;10440391;28;20628;-65
2022/01/19 16:33:34;;;;;;;7.55;6.85;;;;;;;;;;10444383;28;20218;-65
2022/01/19 16:38:35;;;;;;;7.35;6.68;;;;;;;;;;10446464;28;20190;-63
2022/01/19 16:43:36;;;;;;;8.38;7.57;;;;;;;;;;10450489;28;20219;-64
2022/01/19 16:48:38;;;;;;;7.43;6.82;;;;;;;;;;10450239;28;20214;-64
2022/01/19 16:53:40;;;;;;;7.50;6.90;;;;;;;;;;10446733;28;20201;-64
2022/01/19 16:58:41;;;;;;;8.32;7.63;;;;;;;;;;10447240;28;20198;-64
2022/01/19 17:03:43;;;;;;;12.00;8.88;;;;;;;;;;10449356;28;20230;-65
2022/01/19 17:08:45;;;;;;;9.68;8.52;;;;;;;;;;10451781;28;20225;-65
2022/01/19 17:14:09;;;;;;;10.50;9.50;;;;;;;;;;10451541;28;20190;-65
2022/01/19 17:19:11;;;;;;;11.70;9.88;;;;;;;;;;10448472;28;20647;-64
2022/01/19 17:24:12;;;;;;;10.73;9.40;;;;;;;;;;10425660;28;20222;-64
2022/01/19 17:29:13;;;;;;;11.73;10.07;;;;;;;;;;10447959;28;20776;-64
2022/01/19 17:34:14;;;;;;;14.00;10.50;;;;;;;;;;10453722;28;20218;-65
2022/01/19 17:39:15;;;;;;;10.95;9.82;;;;;;;;;;10457680;28;20225;-64
2022/01/19 17:44:16;;;;;;;10.02;9.02;;;;;;;;;;10455792;28;20264;-64
2022/01/19 17:49:45;;;;;;;11.25;9.77;;;;;;;;;;10456809;28;20253;-65
2022/01/19 17:54:46;;;;;;;13.70;11.18;;;;;;;;;;10440152;28;20193;-65
2022/01/19 17:59:47;;;;;;;14.20;10.23;;;;;;;;;;10454026;28;20978;-64
2022/01/19 18:04:48;;;;;;;11.77;9.82;;;;;;;;;;10453343;28;20218;-64
2022/01/19 18:09:51;;;;;;;12.43;10.32;;;;;;;;;;10451151;28;20194;-64
2022/01/19 18:14:53;;;;;;;11.48;10.25;;;;;;;;;;10449455;28;20606;-62
2022/01/19 18:19:54;;;;;;;15.70;10.88;;;;;;;;;;10450527;28;20866;-64
2022/01/19 18:24:55;;;;;;;15.23;10.98;;;;;;;;;;10447795;28;20778;-64
2022/01/19 18:29:56;;;;;;;14.65;11.85;;;;;;;;;;10445881;28;20186;-65
2022/01/19 18:34:58;;;;;;;15.52;10.35;;;;;;;;;;10435932;28;20214;-66
2022/01/19 18:40:03;;;;;;;18.48;12.57;;;;;;;;;;10455343;28;20201;-65
2022/01/19 18:45:05;;;;;;;15.43;12.38;;;;;;;;;;10446001;28;20261;-64
2022/01/19 18:50:06;;;;;;;17.92;12.48;;;;;;;;;;10450546;28;20295;-64
2022/01/19 18:55:09;;;;;;;15.98;12.57;;;;;;;;;;10439432;28;20190;-65
2022/01/19 19:00:11;;;;;;;17.02;12.88;;;;;;;;;;10452418;28;20713;-65
2022/01/19 19:05:13;;;;;;;20.50;13.35;;;;;;;;;;10435901;28;20215;-65
2022/01/19 19:15:19;;;;;;;21.10;14.32;;;;;;;;;;10447813;28;20666;-65
2022/01/19 19:20:21;;;;;;;19.30;12.85;;;;;;;;;;10450351;28;21040;-65
2022/01/19 19:25:23;;;;;;;19.60;14.18;;;;;;;;;;10448581;28;20246;-65
2022/01/19 19:30:25;;;;;;;18.30;13.00;;;;;;;;;;10448418;28;20202;-64
2022/01/19 19:35:27;;;;;;;17.10;12.93;;;;;;;;;;10450371;28;20198;-65
2022/01/19 19:40:28;;;;;;;17.00;11.23;;;;;;;;;;10449357;28;20586;-64
2022/01/19 19:45:29;;;;;;;16.25;11.85;;;;;;;;;;10447294;28;20233;-64
2022/01/19 19:50:30;;;;;;;15.55;10.48;;;;;;;;;;10435941;28;20206;-65
2022/01/19 19:55:32;;;;;;;16.40;12.18;;;;;;;;;;10439766;28;20295;-65
2022/01/19 20:00:33;;;;;;;14.13;9.60;;;;;;;;;;10409257;28;20219;-65
2022/01/19 20:05:35;;;;;;;13.50;10.48;;;;;;;;;;10403442;28;20236;-63
2022/01/19 20:10:38;;;;;;;14.98;10.05;;;;;;;;;;10377640;28;20195;-66
2022/01/19 20:15:39;;;;;;;13.40;8.68;;;;;;;;;;10399432;28;20255;-65
2022/01/19 20:20:44;;;;;;;12.15;9.38;;;;;;;;;;10402450;28;20192;-64
2022/01/19 20:25:45;;;;;;;13.95;9.18;;;;;;;;;;10405663;28;20222;-65
2022/01/19 20:30:46;;;;;;;12.95;10.18;;;;;;;;;;10407688;28;20206;-65
2022/01/19 20:35:49;;;;;;;14.52;10.20;;;;;;;;;;10399021;28;20318;-63
2022/01/19 20:40:50;;;;;;;13.77;10.57;;;;;;;;;;10400952;28;20253;-65
2022/01/19 20:45:51;;;;;;;11.90;9.18;;;;;;;;;;10381236;28;20191;-63
2022/01/19 20:50:52;;;;;;;12.25;9.52;;;;;;;;;;10404564;28;20214;-64
2022/01/19 20:55:53;;;;;;;11.18;9.30;;;;;;;;;;10394287;28;20196;-63
2022/01/19 21:00:54;;;;;;;12.05;8.73;;;;;;;;;;10377198;28;20265;-64
2022/01/19 21:05:56;;;;;;;12.05;9.90;;;;;;;;;;10385790;28;20198;-65
2022/01/19 21:10:57;;;;;;;12.40;9.38;;;;;;;;;;10404796;28;20195;-65
2022/01/19 21:15:59;;;;;;;12.40;9.93;;;;;;;;;;10396479;28;20196;-63
2022/01/19 21:21:01;;;;;;;13.13;9.80;;;;;;;;;;10405966;28;20195;-64
2022/01/19 21:26:02;;;;;;;13.52;9.88;;;;;;;;;;10407640;28;20318;-63
2022/01/19 21:31:05;;;;;;;12.02;9.55;;;;;;;;;;10409586;28;20309;-63
2022/01/19 21:36:07;;;;;;;12.68;9.85;;;;;;;;;;10412010;28;20670;-65
2022/01/19 21:41:08;;;;;;;8.77;7.68;;;;;;;;;;10405903;28;20254;-64
2022/01/19 21:46:10;;;;;;;11.98;9.60;;;;;;;;;;10406523;28;20202;-64
2022/01/19 21:51:11;;;;;;;15.10;10.35;;;;;;;;;;10408075;28;20314;-64
2022/01/19 21:56:12;;;;;;;14.07;11.63;;;;;;;;;;10411947;28;20195;-64
2022/01/19 22:01:13;;;;;;;14.35;11.00;;;;;;;;;;10423415;28;20218;-64
2022/01/19 22:06:14;;;;;;;13.57;11.05;;;;;;;;;;10447903;28;20194;-65
2022/01/19 22:11:16;;;;;;;15.10;11.60;;;;;;;;;;10450360;28;20673;-64
2022/01/19 22:16:17;;;;;;;13.68;10.75;;;;;;;;;;10453061;28;20711;-65
2022/01/19 22:21:19;;;;;;;13.88;10.93;;;;;;;;;;10449877;28;20221;-65
2022/01/19 22:26:20;;;;;;;16.00;11.63;;;;;;;;;;10445177;28;20190;-64
2022/01/19 22:31:21;;;;;;;13.55;11.00;;;;;;;;;;10448207;28;20565;-64
2022/01/19 22:36:22;;;;;;;17.17;11.98;;;;;;;;;;10451801;28;20195;-64
2022/01/19 22:41:24;;;;;;;16.40;12.43;;;;;;;;;;10450992;28;20219;-65
2022/01/19 22:46:25;;;;;;;21.55;14.48;;;;;;;;;;10451319;28;20217;-65
2022/01/19 22:51:26;;;;;;;30.25;15.23;;;;;;;;;;10399495;28;20215;-65
2022/01/19 22:56:27;;;;;;;21.35;13.25;;;;;;;;;;10400787;28;20559;-64
2022/01/19 23:01:29;;;;;;;22.20;14.45;;;;;;;;;;10402161;28;20218;-64
2022/01/19 23:06:31;;;;;;;20.85;11.80;;;;;;;;;;10411508;28;20205;-64
2022/01/19 23:11:33;;;;;;;18.55;6.75;;;;;;;;;;10410981;28;20566;-64
2022/01/19 23:16:34;;;;;;;21.73;4.25;;;;;;;;;;10409552;28;20206;-63
2022/01/19 23:21:37;;;;;;;17.30;3.13;;;;;;;;;;10409204;28;20208;-64
2022/01/19 23:26:45;;;;;;;23.65;3.28;;;;;;;;;;10407221;28;20191;-65
2022/01/19 23:31:48;;;;;;;17.27;3.60;;;;;;;;;;10408061;28;20211;-65
2022/01/19 23:37:01;;;;;;;17.98;3.10;;;;;;;;;;10409616;28;20198;-65
2022/01/19 23:52:46;;;;;;;19.58;2.60;;;;;;;;;;10410391;28;20682;-65
2022/01/19 23:57:55;;;;;;;15.48;2.10;;;;;;;;;;10391926;28;20289;-65
